Time;durP1;ratioP1;P1;durP2;ratioP2;P2;SDS_P1;SDS_P2;PMS_P1;PMS_P2;Temp;Humidity;BMP_temperature;BMP_pressure;BME280_temperature;BME280_humidity;BME280_pressure;Samples;Min_cycle;Max_cycle;Signal;HPM_P1;HPM_P2
2021/12/10 00:01:09;;;;;;;38.08;25.63;;;;;;;;;;5021025;28;20410;-83
2021/12/10 00:03:39;;;;;;;33.38;24.25;;;;;;;;;;5019674;28;20409;-83
2021/12/10 00:06:11;;;;;;;34.25;24.88;;;;;;;;;;5020811;28;20877;-83
2021/12/10 00:08:44;;;;;;;35.00;24.55;;;;;;;;;;5020029;28;20835;-83
2021/12/10 00:11:16;;;;;;;37.05;26.17;;;;;;;;;;5020698;28;20719;-83
2021/12/10 00:13:45;;;;;;;36.70;24.88;;;;;;;;;;5018840;28;20413;-83
2021/12/10 00:16:12;;;;;;;36.58;25.45;;;;;;;;;;5020590;28;21202;-82
2021/12/10 00:18:45;;;;;;;34.83;24.48;;;;;;;;;;5014984;28;20403;-82
2021/12/10 00:21:12;;;;;;;35.85;24.48;;;;;;;;;;5013439;28;20427;-83
2021/12/10 00:23:45;;;;;;;33.10;24.05;;;;;;;;;;5021597;28;20405;-81
2021/12/10 00:26:12;;;;;;;31.80;24.15;;;;;;;;;;5020139;28;20470;-83
2021/12/10 00:28:40;;;;;;;34.53;24.40;;;;;;;;;;5019080;28;20408;-84
2021/12/10 00:31:18;;;;;;;31.85;23.88;;;;;;;;;;5004695;28;20784;-84
2021/12/10 00:33:48;;;;;;;32.10;23.73;;;;;;;;;;5004688;28;20451;-83
2021/12/10 00:36:15;;;;;;;33.45;23.70;;;;;;;;;;5004362;28;20437;-82
2021/12/10 00:38:43;;;;;;;34.67;23.85;;;;;;;;;;5005004;28;20401;-83
2021/12/10 00:41:11;;;;;;;32.95;24.05;;;;;;;;;;5003147;28;20942;-84
2021/12/10 00:43:40;;;;;;;33.63;24.27;;;;;;;;;;5018755;28;20798;-84
2021/12/10 00:46:07;;;;;;;36.20;24.27;;;;;;;;;;5021788;28;20894;-84
2021/12/10 00:48:35;;;;;;;35.30;24.73;;;;;;;;;;5021855;28;20459;-84
2021/12/10 00:51:05;;;;;;;35.75;24.73;;;;;;;;;;5021819;28;20895;-84
2021/12/10 00:53:32;;;;;;;35.80;24.42;;;;;;;;;;5021636;28;20405;-83
2021/12/10 00:56:01;;;;;;;33.55;24.55;;;;;;;;;;5007036;28;20407;-83
2021/12/10 00:58:29;;;;;;;32.85;24.38;;;;;;;;;;5007587;28;20409;-84
2021/12/10 01:00:59;;;;;;;34.47;23.90;;;;;;;;;;5004477;28;20411;-83
2021/12/10 01:03:28;;;;;;;33.38;23.67;;;;;;;;;;5003934;28;20434;-84
2021/12/10 01:06:00;;;;;;;30.35;22.77;;;;;;;;;;5004235;28;20879;-83
2021/12/10 01:08:28;;;;;;;33.00;23.33;;;;;;;;;;5003845;28;20410;-83
2021/12/10 01:10:59;;;;;;;24.27;17.55;;;;;;;;;;5004300;28;20403;-83
2021/12/10 01:13:32;;;;;;;22.63;16.10;;;;;;;;;;5019484;28;20409;-83
2021/12/10 01:23:39;;;;;;;21.15;15.32;;;;;;;;;;5006582;28;20514;-84
2021/12/10 01:24:38;;;;;;;20.20;15.00;;;;;;;;;;5023200;28;20388;-84
2021/12/10 01:27:12;;;;;;;20.05;15.40;;;;;;;;;;5021984;28;20409;-84
2021/12/10 01:29:43;;;;;;;22.13;16.43;;;;;;;;;;5007776;28;20559;-83
2021/12/10 01:32:14;;;;;;;22.67;16.73;;;;;;;;;;5003569;28;20415;-82
2021/12/10 01:34:41;;;;;;;24.90;17.70;;;;;;;;;;5003705;28;20502;-81
2021/12/10 01:37:09;;;;;;;25.85;20.15;;;;;;;;;;5008171;28;20426;-84
2021/12/10 01:39:39;;;;;;;28.70;21.70;;;;;;;;;;5007569;28;20406;-83
2021/12/10 01:42:16;;;;;;;27.70;21.55;;;;;;;;;;5014973;28;20424;-83
2021/12/10 01:44:46;;;;;;;29.65;21.63;;;;;;;;;;5016032;28;20690;-83
2021/12/10 01:47:16;;;;;;;29.65;23.02;;;;;;;;;;5006403;28;20403;-83
2021/12/10 01:49:43;;;;;;;29.42;22.27;;;;;;;;;;5007322;28;20404;-83
2021/12/10 01:52:13;;;;;;;28.13;21.90;;;;;;;;;;5006178;28;20562;-84
2021/12/10 01:54:45;;;;;;;28.90;22.53;;;;;;;;;;5006810;28;20403;-82
2021/12/10 01:57:14;;;;;;;28.70;21.77;;;;;;;;;;5008398;28;21170;-82
2021/12/10 01:59:44;;;;;;;28.58;21.63;;;;;;;;;;5010895;28;20419;-82
2021/12/10 02:02:15;;;;;;;25.05;20.40;;;;;;;;;;5028245;28;20425;-83
2021/12/10 02:04:45;;;;;;;28.48;21.35;;;;;;;;;;5027411;28;20408;-84
2021/12/10 02:07:15;;;;;;;27.70;21.15;;;;;;;;;;5025564;28;20801;-84
2021/12/10 02:09:42;;;;;;;27.48;20.35;;;;;;;;;;5026329;28;20414;-84
2021/12/10 02:12:10;;;;;;;27.23;20.50;;;;;;;;;;5019680;28;20419;-84
2021/12/10 02:14:36;;;;;;;25.77;19.65;;;;;;;;;;5010544;28;20399;-84
2021/12/10 02:17:06;;;;;;;26.17;20.63;;;;;;;;;;5007516;28;20430;-84
2021/12/10 02:19:34;;;;;;;25.85;20.30;;;;;;;;;;5007527;28;20422;-84
2021/12/10 02:22:05;;;;;;;28.65;19.88;;;;;;;;;;5008021;28;20412;-83
2021/12/10 02:24:32;;;;;;;26.75;19.17;;;;;;;;;;5006924;28;20414;-84
2021/12/10 02:27:04;;;;;;;24.85;18.52;;;;;;;;;;5007848;28;20410;-84
2021/12/10 02:29:34;;;;;;;23.05;17.38;;;;;;;;;;5016313;28;20408;-84
2021/12/10 02:32:01;;;;;;;23.50;16.05;;;;;;;;;;5007064;28;20710;-84
2021/12/10 02:34:28;;;;;;;23.80;15.88;;;;;;;;;;5006665;28;20419;-83
2021/12/10 02:36:57;;;;;;;22.98;15.63;;;;;;;;;;5007522;28;20411;-83
2021/12/10 02:39:27;;;;;;;20.05;15.52;;;;;;;;;;5006574;28;20594;-83
2021/12/10 02:41:54;;;;;;;20.20;15.25;;;;;;;;;;5007684;28;20403;-84
2021/12/10 02:44:24;;;;;;;19.98;14.85;;;;;;;;;;5010830;28;20595;-83
2021/12/10 02:46:52;;;;;;;17.90;13.38;;;;;;;;;;5006216;28;20890;-84
2021/12/10 02:49:19;;;;;;;16.40;12.57;;;;;;;;;;5006337;28;20406;-83
2021/12/10 02:51:46;;;;;;;16.38;12.38;;;;;;;;;;5007127;28;20422;-84
2021/12/10 02:54:20;;;;;;;17.40;11.77;;;;;;;;;;5006396;28;20414;-83
2021/12/10 02:56:52;;;;;;;16.33;11.93;;;;;;;;;;5008361;28;20422;-83
2021/12/10 02:59:19;;;;;;;16.73;11.45;;;;;;;;;;5012068;28;20411;-83
2021/12/10 03:01:50;;;;;;;15.30;10.70;;;;;;;;;;5017825;28;20412;-83
2021/12/10 03:04:17;;;;;;;15.73;11.43;;;;;;;;;;5015197;28;20903;-84
2021/12/10 03:06:48;;;;;;;15.07;10.60;;;;;;;;;;5017133;28;20474;-84
2021/12/10 03:09:17;;;;;;;14.53;10.30;;;;;;;;;;5014760;28;20573;-84
2021/12/10 03:11:48;;;;;;;14.40;10.48;;;;;;;;;;5018624;28;20415;-84
2021/12/10 03:14:19;;;;;;;14.93;10.35;;;;;;;;;;5017807;28;20974;-84
2021/12/10 03:16:50;;;;;;;14.52;10.20;;;;;;;;;;5012959;28;20409;-83
2021/12/10 03:19:17;;;;;;;12.07;9.73;;;;;;;;;;5015936;28;20757;-84
2021/12/10 03:21:45;;;;;;;14.20;10.10;;;;;;;;;;5015727;28;20403;-84
2021/12/10 03:24:12;;;;;;;14.50;9.90;;;;;;;;;;5016607;28;20438;-84
2021/12/10 03:26:39;;;;;;;15.37;10.30;;;;;;;;;;5014536;28;20411;-84
2021/12/10 03:29:06;;;;;;;12.10;9.30;;;;;;;;;;5017857;28;20440;-82
2021/12/10 03:31:36;;;;;;;12.80;8.98;;;;;;;;;;5016229;28;20407;-82
2021/12/10 03:34:04;;;;;;;11.90;9.00;;;;;;;;;;5016426;28;20924;-82
2021/12/10 03:36:31;;;;;;;11.33;8.37;;;;;;;;;;5015027;28;20411;-82
2021/12/10 03:38:58;;;;;;;10.63;8.10;;;;;;;;;;5017663;28;20417;-82
2021/12/10 03:41:25;;;;;;;11.10;8.25;;;;;;;;;;5017732;28;20412;-83
2021/12/10 03:43:54;;;;;;;10.80;7.97;;;;;;;;;;5017719;28;20509;-82
2021/12/10 03:46:22;;;;;;;11.25;8.60;;;;;;;;;;5017816;28;20437;-82
2021/12/10 03:48:50;;;;;;;11.02;8.25;;;;;;;;;;5013109;28;20422;-83
2021/12/10 03:51:21;;;;;;;10.73;8.18;;;;;;;;;;5016492;28;20463;-82
2021/12/10 03:53:49;;;;;;;10.95;8.02;;;;;;;;;;5013956;28;20465;-84
2021/12/10 03:56:20;;;;;;;11.38;8.20;;;;;;;;;;5015807;28;20408;-83
2021/12/10 03:58:48;;;;;;;11.00;7.72;;;;;;;;;;5020377;28;20816;-83
2021/12/10 04:01:18;;;;;;;10.57;8.00;;;;;;;;;;5014711;28;20457;-83
2021/12/10 04:03:48;;;;;;;11.35;7.97;;;;;;;;;;5015730;28;20430;-84
2021/12/10 04:06:17;;;;;;;10.27;7.85;;;;;;;;;;5013789;28;20426;-83
2021/12/10 04:08:44;;;;;;;10.88;8.00;;;;;;;;;;5016056;28;20401;-83
2021/12/10 04:11:15;;;;;;;10.80;7.70;;;;;;;;;;5015652;28;20413;-83
2021/12/10 04:13:44;;;;;;;10.32;8.27;;;;;;;;;;5019397;28;20417;-83
2021/12/10 04:16:11;;;;;;;10.50;7.90;;;;;;;;;;5014219;28;20405;-83
2021/12/10 04:18:38;;;;;;;10.45;7.97;;;;;;;;;;5015808;28;20946;-83
2021/12/10 04:21:06;;;;;;;10.55;7.85;;;;;;;;;;5015993;28;20827;-83
2021/12/10 04:23:35;;;;;;;12.50;8.70;;;;;;;;;;5014817;28;20430;-83
2021/12/10 04:26:02;;;;;;;12.05;8.60;;;;;;;;;;5016923;28;20417;-83
2021/12/10 04:28:29;;;;;;;11.00;8.13;;;;;;;;;;5016153;28;20405;-83
2021/12/10 04:30:56;;;;;;;11.88;8.63;;;;;;;;;;5016630;28;20413;-83
2021/12/10 04:33:26;;;;;;;10.15;8.10;;;;;;;;;;5013148;28;20868;-83
2021/12/10 04:35:55;;;;;;;11.38;7.90;;;;;;;;;;5013300;28;20487;-83
2021/12/10 04:38:25;;;;;;;11.55;8.68;;;;;;;;;;5012863;28;20767;-82
2021/12/10 04:40:56;;;;;;;11.00;8.40;;;;;;;;;;5016224;28;20402;-83
2021/12/10 04:43:23;;;;;;;11.77;8.40;;;;;;;;;;5010396;28;20417;-84
2021/12/10 04:45:53;;;;;;;10.70;8.30;;;;;;;;;;5016282;28;20395;-83
2021/12/10 04:48:20;;;;;;;12.40;8.95;;;;;;;;;;5011592;28;20414;-84
2021/12/10 04:50:47;;;;;;;11.80;8.50;;;;;;;;;;5015997;28;20412;-84
2021/12/10 04:53:14;;;;;;;12.23;8.63;;;;;;;;;;5013910;28;20896;-85
2021/12/10 04:55:42;;;;;;;11.63;8.27;;;;;;;;;;5019400;28;20418;-84
2021/12/10 04:58:11;;;;;;;11.05;8.50;;;;;;;;;;5018182;28;20399;-84
2021/12/10 05:00:42;;;;;;;12.35;8.77;;;;;;;;;;5015221;28;20403;-84
2021/12/10 05:03:09;;;;;;;11.20;8.30;;;;;;;;;;5014097;28;20429;-84
2021/12/10 05:05:38;;;;;;;9.90;7.95;;;;;;;;;;5019646;28;20424;-84
2021/12/10 05:08:06;;;;;;;12.52;8.93;;;;;;;;;;5010567;28;20409;-84
2021/12/10 05:10:34;;;;;;;13.15;9.75;;;;;;;;;;5016171;28;20404;-84
2021/12/10 05:13:01;;;;;;;12.05;9.13;;;;;;;;;;5017580;28;20410;-84
2021/12/10 05:15:33;;;;;;;14.77;9.98;;;;;;;;;;5020369;28;21031;-84
2021/12/10 05:18:00;;;;;;;12.18;9.63;;;;;;;;;;5018833;28;20406;-84
2021/12/10 05:20:30;;;;;;;14.35;10.10;;;;;;;;;;5014954;28;20412;-84
2021/12/10 05:22:57;;;;;;;15.27;11.38;;;;;;;;;;5017754;28;20405;-84
2021/12/10 05:25:26;;;;;;;20.80;12.75;;;;;;;;;;5018993;28;20464;-84
2021/12/10 05:27:53;;;;;;;16.08;12.02;;;;;;;;;;5019109;28;20405;-84
2021/12/10 05:30:23;;;;;;;16.55;12.32;;;;;;;;;;5020028;28;20413;-84
2021/12/10 05:32:52;;;;;;;16.02;12.07;;;;;;;;;;5016337;28;20411;-84
2021/12/10 05:35:19;;;;;;;17.08;11.95;;;;;;;;;;5015364;28;20414;-84
2021/12/10 05:37:45;;;;;;;18.13;12.80;;;;;;;;;;5015678;28;20437;-84
2021/12/10 05:40:15;;;;;;;15.70;11.50;;;;;;;;;;5016890;28;20767;-85
2021/12/10 05:42:43;;;;;;;16.35;11.25;;;;;;;;;;5018900;28;20419;-84
2021/12/10 05:45:10;;;;;;;16.87;11.60;;;;;;;;;;5016861;28;20498;-84
2021/12/10 05:47:38;;;;;;;14.50;11.07;;;;;;;;;;5018302;28;20883;-84
2021/12/10 05:50:11;;;;;;;14.77;11.70;;;;;;;;;;5018141;28;20454;-84
2021/12/10 05:52:38;;;;;;;17.77;12.80;;;;;;;;;;5018978;28;20667;-84
2021/12/10 05:55:06;;;;;;;16.92;12.45;;;;;;;;;;5017548;28;20391;-84
2021/12/10 05:57:33;;;;;;;16.48;11.95;;;;;;;;;;5020865;28;20777;-84
2021/12/10 06:00:00;;;;;;;15.88;11.93;;;;;;;;;;5018954;28;20414;-84
2021/12/10 06:02:27;;;;;;;13.07;10.48;;;;;;;;;;5018867;28;20875;-84
2021/12/10 06:04:54;;;;;;;15.20;11.60;;;;;;;;;;5015875;28;20430;-84
2021/12/10 06:07:22;;;;;;;14.30;10.30;;;;;;;;;;5015291;28;20484;-83
2021/12/10 06:09:49;;;;;;;16.10;10.60;;;;;;;;;;5015747;28;20414;-82
2021/12/10 06:12:16;;;;;;;14.85;10.75;;;;;;;;;;5015277;28;20410;-82
2021/12/10 06:14:43;;;;;;;14.73;11.20;;;;;;;;;;5014904;28;20413;-82
2021/12/10 06:17:09;;;;;;;15.15;10.85;;;;;;;;;;5014462;28;20404;-81
2021/12/10 06:19:37;;;;;;;13.80;10.43;;;;;;;;;;5016536;28;20463;-82
2021/12/10 06:22:04;;;;;;;14.38;10.55;;;;;;;;;;5016165;28;20417;-84
2021/12/10 06:24:33;;;;;;;15.15;10.82;;;;;;;;;;5014483;28;20433;-84
2021/12/10 06:26:59;;;;;;;15.60;10.77;;;;;;;;;;5013239;28;20478;-82
2021/12/10 06:29:27;;;;;;;15.60;11.80;;;;;;;;;;5017115;28;20981;-83
2021/12/10 06:31:56;;;;;;;15.77;11.35;;;;;;;;;;5024873;28;20447;-83
2021/12/10 06:34:23;;;;;;;18.63;11.32;;;;;;;;;;5017666;28;20407;-84
2021/12/10 06:36:51;;;;;;;19.33;13.68;;;;;;;;;;5015285;28;20402;-83
2021/12/10 06:39:20;;;;;;;19.02;13.60;;;;;;;;;;5017929;28;20419;-84
2021/12/10 06:41:50;;;;;;;18.60;12.90;;;;;;;;;;5018373;28;20401;-84
2021/12/10 06:44:17;;;;;;;20.00;13.45;;;;;;;;;;5011412;28;20513;-84
2021/12/10 06:46:44;;;;;;;20.10;13.32;;;;;;;;;;5012714;28;20755;-84
2021/12/10 06:49:11;;;;;;;19.00;12.90;;;;;;;;;;5012705;28;20882;-83
2021/12/10 06:51:38;;;;;;;18.15;12.63;;;;;;;;;;5012281;28;20777;-83
2021/12/10 06:54:05;;;;;;;16.00;12.48;;;;;;;;;;5014598;28;20399;-78
2021/12/10 06:56:34;;;;;;;23.33;14.93;;;;;;;;;;5014543;28;20750;-84
2021/12/10 06:59:03;;;;;;;17.75;13.18;;;;;;;;;;5012601;28;20411;-84
2021/12/10 07:01:33;;;;;;;18.67;13.70;;;;;;;;;;5010685;28;20430;-84
2021/12/10 07:04:04;;;;;;;19.70;13.00;;;;;;;;;;5011498;28;20423;-84
2021/12/10 07:06:31;;;;;;;19.17;13.20;;;;;;;;;;5018145;28;20409;-84
2021/12/10 07:09:00;;;;;;;20.33;14.68;;;;;;;;;;5018424;28;20409;-83
2021/12/10 07:11:28;;;;;;;18.33;13.57;;;;;;;;;;5011468;28;20851;-84
2021/12/10 07:13:59;;;;;;;18.05;13.15;;;;;;;;;;5014186;28;20432;-84
2021/12/10 07:16:32;;;;;;;17.65;12.48;;;;;;;;;;5017315;28;20735;-84
2021/12/10 07:19:01;;;;;;;17.58;13.02;;;;;;;;;;5015814;28;20837;-84
2021/12/10 07:21:29;;;;;;;17.90;12.65;;;;;;;;;;5019477;28;20405;-83
2021/12/10 07:23:56;;;;;;;18.38;14.20;;;;;;;;;;5015958;28;20444;-83
2021/12/10 07:26:23;;;;;;;18.95;14.43;;;;;;;;;;5016103;28;20405;-84
2021/12/10 07:28:50;;;;;;;18.30;13.65;;;;;;;;;;5014990;28;20461;-84
2021/12/10 07:31:17;;;;;;;18.60;14.52;;;;;;;;;;5011478;28;20399;-83
2021/12/10 07:33:45;;;;;;;19.33;14.10;;;;;;;;;;5013901;28;20413;-84
2021/12/10 07:36:15;;;;;;;18.75;14.45;;;;;;;;;;5016536;28;20414;-84
2021/12/10 07:38:42;;;;;;;20.42;14.45;;;;;;;;;;5012928;28;20779;-84
2021/12/10 07:41:09;;;;;;;20.17;14.10;;;;;;;;;;5016215;28;20404;-83
2021/12/10 07:43:37;;;;;;;21.58;14.48;;;;;;;;;;5019721;28;20413;-85
2021/12/10 07:46:05;;;;;;;20.00;13.65;;;;;;;;;;5018600;28;20405;-85
2021/12/10 07:48:34;;;;;;;20.33;13.18;;;;;;;;;;5027871;28;20399;-85
2021/12/10 07:51:06;;;;;;;17.35;12.27;;;;;;;;;;5029976;28;20403;-85
2021/12/10 07:53:34;;;;;;;14.90;11.07;;;;;;;;;;5016692;28;20409;-85
2021/12/10 07:56:05;;;;;;;15.00;10.30;;;;;;;;;;5018563;28;20403;-85
2021/12/10 07:58:33;;;;;;;13.63;10.15;;;;;;;;;;5016214;28;20812;-83
2021/12/10 08:01:01;;;;;;;15.15;10.77;;;;;;;;;;5009686;28;20807;-84
2021/12/10 08:03:28;;;;;;;18.00;13.02;;;;;;;;;;5010418;28;20411;-82
2021/12/10 08:05:55;;;;;;;21.73;16.48;;;;;;;;;;5011266;28;20481;-82
2021/12/10 08:08:23;;;;;;;23.30;17.40;;;;;;;;;;5010193;28;20407;-84
2021/12/10 08:10:50;;;;;;;21.33;15.32;;;;;;;;;;5010414;28;20403;-83
2021/12/10 08:13:22;;;;;;;21.58;14.95;;;;;;;;;;5016549;28;20408;-84
2021/12/10 08:15:48;;;;;;;21.05;14.75;;;;;;;;;;5017604;28;20417;-85
2021/12/10 08:18:15;;;;;;;18.92;14.02;;;;;;;;;;5004019;28;20426;-84
2021/12/10 08:20:42;;;;;;;19.65;13.82;;;;;;;;;;5009415;28;20421;-85
2021/12/10 08:23:09;;;;;;;19.42;13.48;;;;;;;;;;5009375;28;20436;-83
2021/12/10 08:25:38;;;;;;;17.58;13.15;;;;;;;;;;5011534;28;20413;-84
2021/12/10 08:28:07;;;;;;;20.42;13.82;;;;;;;;;;5013841;28;20422;-85
2021/12/10 08:30:37;;;;;;;18.33;13.32;;;;;;;;;;5010543;28;20410;-83
2021/12/10 08:33:11;;;;;;;18.27;12.77;;;;;;;;;;5009379;28;20414;-85
2021/12/10 08:35:38;;;;;;;18.37;11.80;;;;;;;;;;5008712;28;20414;-84
2021/12/10 08:38:05;;;;;;;17.35;12.02;;;;;;;;;;5012327;28;20413;-85
2021/12/10 08:40:35;;;;;;;16.23;11.95;;;;;;;;;;5010582;28;20418;-84
2021/12/10 08:43:06;;;;;;;17.48;11.98;;;;;;;;;;5013044;28;20409;-83
2021/12/10 08:45:35;;;;;;;17.98;12.30;;;;;;;;;;5014196;28;20430;-83
2021/12/10 08:48:02;;;;;;;17.50;12.50;;;;;;;;;;5012895;28;20802;-85
2021/12/10 08:50:29;;;;;;;17.75;12.35;;;;;;;;;;5013257;28;20403;-85
2021/12/10 08:52:59;;;;;;;17.65;12.77;;;;;;;;;;5014890;28;20417;-85
2021/12/10 08:55:28;;;;;;;18.77;13.27;;;;;;;;;;5015637;28;20547;-85
2021/12/10 08:57:56;;;;;;;25.20;18.67;;;;;;;;;;5014452;28;20406;-84
2021/12/10 09:00:25;;;;;;;19.60;14.38;;;;;;;;;;5014961;28;20501;-84
2021/12/10 09:02:55;;;;;;;17.23;12.50;;;;;;;;;;5012016;28;20411;-84
2021/12/10 09:05:22;;;;;;;16.45;11.10;;;;;;;;;;5012312;28;20433;-84
2021/12/10 09:07:50;;;;;;;15.07;11.98;;;;;;;;;;5011459;28;20430;-85
2021/12/10 09:10:19;;;;;;;15.07;11.35;;;;;;;;;;5012037;28;20414;-83
2021/12/10 09:12:47;;;;;;;16.50;11.90;;;;;;;;;;5012960;28;20464;-84
2021/12/10 09:15:19;;;;;;;16.35;11.40;;;;;;;;;;5012250;28;20409;-83
2021/12/10 09:17:48;;;;;;;13.88;10.32;;;;;;;;;;5010997;28;20433;-85
2021/12/10 09:20:20;;;;;;;13.73;10.35;;;;;;;;;;5020594;28;20504;-85
2021/12/10 09:22:49;;;;;;;15.80;10.50;;;;;;;;;;5020896;28;20413;-85
2021/12/10 09:25:17;;;;;;;14.13;10.05;;;;;;;;;;5011564;28;20438;-83
2021/12/10 09:27:44;;;;;;;14.25;10.05;;;;;;;;;;5020921;28;20445;-85
2021/12/10 09:30:15;;;;;;;11.30;8.90;;;;;;;;;;5012466;28;20413;-85
2021/12/10 09:32:42;;;;;;;14.30;10.10;;;;;;;;;;5019179;28;20930;-85
2021/12/10 09:35:13;;;;;;;13.73;10.23;;;;;;;;;;5018582;28;20407;-85
2021/12/10 09:37:41;;;;;;;14.57;9.65;;;;;;;;;;5012261;28;20984;-86
2021/12/10 09:40:14;;;;;;;18.73;9.90;;;;;;;;;;5011917;28;20762;-85
2021/12/10 09:42:41;;;;;;;13.85;9.70;;;;;;;;;;5014096;28;20410;-86
2021/12/10 09:45:10;;;;;;;14.45;9.60;;;;;;;;;;5015159;28;20426;-85
2021/12/10 09:47:37;;;;;;;11.38;7.93;;;;;;;;;;5013840;28;20755;-82
2021/12/10 09:50:06;;;;;;;9.57;7.30;;;;;;;;;;5013393;28;20415;-84
2021/12/10 09:52:34;;;;;;;9.57;6.80;;;;;;;;;;5010255;28;20399;-82
2021/12/10 09:55:02;;;;;;;9.00;6.50;;;;;;;;;;5011213;28;20445;-82
2021/12/10 09:57:31;;;;;;;7.50;5.63;;;;;;;;;;5019633;28;20417;-83
2021/12/10 09:59:59;;;;;;;8.37;5.70;;;;;;;;;;5022282;28;20475;-82
2021/12/10 10:02:27;;;;;;;6.50;4.93;;;;;;;;;;5016372;28;20418;-82
2021/12/10 10:04:55;;;;;;;6.05;4.63;;;;;;;;;;5021067;28;20467;-81
2021/12/10 10:07:25;;;;;;;6.50;4.43;;;;;;;;;;5009621;28;20480;-82
2021/12/10 10:09:58;;;;;;;6.47;4.75;;;;;;;;;;5010442;28;20441;-81
2021/12/10 10:12:28;;;;;;;6.53;4.60;;;;;;;;;;5017159;28;21184;-82
2021/12/10 10:14:55;;;;;;;6.65;4.30;;;;;;;;;;5020023;28;20829;-82
2021/12/10 10:17:23;;;;;;;7.72;4.97;;;;;;;;;;5009516;28;20439;-84
2021/12/10 10:19:52;;;;;;;5.88;4.35;;;;;;;;;;5009544;28;20407;-81
2021/12/10 10:22:22;;;;;;;4.95;4.10;;;;;;;;;;5017318;28;20420;-82
2021/12/10 10:24:49;;;;;;;4.82;4.13;;;;;;;;;;5020856;28;20417;-81
2021/12/10 10:27:20;;;;;;;5.20;3.70;;;;;;;;;;5020599;28;20436;-81
2021/12/10 10:29:52;;;;;;;5.07;3.22;;;;;;;;;;5020202;28;20888;-81
2021/12/10 10:32:22;;;;;;;4.63;3.55;;;;;;;;;;5019523;28;20425;-82
2021/12/10 10:34:52;;;;;;;4.13;3.72;;;;;;;;;;5020820;28;20413;-83
2021/12/10 10:37:20;;;;;;;5.78;3.90;;;;;;;;;;5019833;28;20417;-80
2021/12/10 10:39:47;;;;;;;4.55;3.85;;;;;;;;;;5021114;28;20413;-83
2021/12/10 10:42:20;;;;;;;4.70;3.85;;;;;;;;;;5015939;28;20417;-81
2021/12/10 10:44:49;;;;;;;5.75;3.70;;;;;;;;;;5017338;28;20418;-81
2021/12/10 10:47:16;;;;;;;4.75;3.90;;;;;;;;;;5019229;28;20424;-80
2021/12/10 10:49:45;;;;;;;6.60;4.43;;;;;;;;;;5021154;28;20410;-83
2021/12/10 10:52:19;;;;;;;5.72;4.38;;;;;;;;;;5017333;28;20925;-84
2021/12/10 10:54:48;;;;;;;6.38;4.30;;;;;;;;;;5021620;28;20406;-82
2021/12/10 10:57:26;;;;;;;5.93;4.50;;;;;;;;;;5008053;28;20418;-82
2021/12/10 10:59:57;;;;;;;6.50;4.60;;;;;;;;;;5010161;28;20419;-81
2021/12/10 11:02:26;;;;;;;5.53;4.53;;;;;;;;;;5008702;28;20418;-82
2021/12/10 11:04:53;;;;;;;6.47;4.53;;;;;;;;;;5009625;28;20415;-82
2021/12/10 11:07:22;;;;;;;7.50;4.90;;;;;;;;;;5007669;28;20439;-83
2021/12/10 11:09:53;;;;;;;6.77;4.90;;;;;;;;;;5007188;28;20403;-82
2021/12/10 11:12:29;;;;;;;6.38;5.28;;;;;;;;;;5010047;28;20442;-81
2021/12/10 11:14:58;;;;;;;7.45;5.18;;;;;;;;;;5015072;28;20951;-82
2021/12/10 11:17:30;;;;;;;6.85;4.95;;;;;;;;;;5017289;28;20411;-82
2021/12/10 11:19:59;;;;;;;6.00;4.80;;;;;;;;;;5013825;28;20414;-80
2021/12/10 11:22:28;;;;;;;5.32;3.88;;;;;;;;;;5009280;28;20403;-82
2021/12/10 11:24:57;;;;;;;4.20;3.53;;;;;;;;;;5019104;28;20882;-82
2021/12/10 11:27:29;;;;;;;4.85;3.50;;;;;;;;;;5012818;28;21140;-83
2021/12/10 11:30:10;;;;;;;5.38;3.60;;;;;;;;;;5008318;28;20492;-80
2021/12/10 11:32:39;;;;;;;15.00;11.73;;;;;;;;;;5007426;28;20423;-82
2021/12/10 11:35:13;;;;;;;5.70;5.10;;;;;;;;;;5008087;28;20497;-82
2021/12/10 11:37:54;;;;;;;5.30;4.22;;;;;;;;;;5008558;28;20894;-82
2021/12/10 11:40:49;;;;;;;4.55;3.63;;;;;;;;;;5007083;28;20622;-82
2021/12/10 11:43:43;;;;;;;5.38;3.83;;;;;;;;;;5002037;28;20450;-82
2021/12/10 11:46:30;;;;;;;5.38;4.60;;;;;;;;;;5018234;28;20430;-82
2021/12/10 11:49:22;;;;;;;4.80;4.30;;;;;;;;;;5019987;28;20463;-83
2021/12/10 11:51:55;;;;;;;5.03;4.03;;;;;;;;;;5014771;28;20407;-81
2021/12/10 11:54:27;;;;;;;5.47;3.90;;;;;;;;;;5006994;28;20411;-82
2021/12/10 11:56:58;;;;;;;5.05;4.03;;;;;;;;;;5008060;28;20406;-81
2021/12/10 11:59:29;;;;;;;5.22;3.95;;;;;;;;;;5008958;28;20477;-81
2021/12/10 12:01:59;;;;;;;6.07;4.40;;;;;;;;;;5008088;28;20414;-82
2021/12/10 12:04:30;;;;;;;5.53;4.38;;;;;;;;;;5006803;28;20415;-81
2021/12/10 12:07:23;;;;;;;6.50;4.40;;;;;;;;;;5007650;28;20427;-81
2021/12/10 12:09:53;;;;;;;4.97;4.28;;;;;;;;;;5020362;28;20397;-81
2021/12/10 12:12:22;;;;;;;5.90;4.22;;;;;;;;;;5012365;28;20406;-83
2021/12/10 12:14:53;;;;;;;5.22;3.75;;;;;;;;;;5019565;28;20832;-83
2021/12/10 12:17:37;;;;;;;4.88;4.38;;;;;;;;;;5019697;28;20476;-84
2021/12/10 12:20:14;;;;;;;5.33;4.00;;;;;;;;;;5018912;28;20413;-84
2021/12/10 12:25:28;;;;;;;5.07;3.60;;;;;;;;;;5011040;28;20422;-86
2021/12/10 12:28:02;;;;;;;5.20;4.30;;;;;;;;;;5013100;28;20417;-87
2021/12/10 12:30:32;;;;;;;4.82;4.20;;;;;;;;;;5012091;28;20403;-87
2021/12/10 12:32:59;;;;;;;4.78;3.75;;;;;;;;;;5013547;28;20409;-85
2021/12/10 12:35:30;;;;;;;7.68;4.05;;;;;;;;;;5010464;28;20494;-84
2021/12/10 12:38:14;;;;;;;6.03;5.43;;;;;;;;;;5013239;28;20471;-85
2021/12/10 12:40:42;;;;;;;7.50;6.40;;;;;;;;;;5016664;28;20421;-84
2021/12/10 12:43:09;;;;;;;11.75;7.22;;;;;;;;;;5014908;28;20424;-86
2021/12/10 12:45:39;;;;;;;5.97;5.35;;;;;;;;;;5017508;28;20440;-86
2021/12/10 12:48:09;;;;;;;5.40;4.90;;;;;;;;;;5016181;28;20419;-86
2021/12/10 12:50:37;;;;;;;5.75;4.60;;;;;;;;;;5016122;28;20480;-86
2021/12/10 12:53:08;;;;;;;7.00;5.20;;;;;;;;;;5018601;28;20422;-85
2021/12/10 12:55:40;;;;;;;5.82;4.75;;;;;;;;;;5016115;28;20516;-84
2021/12/10 12:58:25;;;;;;;7.32;4.20;;;;;;;;;;5015345;28;21374;-84
2021/12/10 13:01:03;;;;;;;4.85;4.10;;;;;;;;;;5013791;28;20469;-84
2021/12/10 13:03:37;;;;;;;5.10;3.90;;;;;;;;;;5015773;28;20432;-84
2021/12/10 13:06:13;;;;;;;6.10;4.53;;;;;;;;;;5018098;28;20420;-84
2021/12/10 13:08:43;;;;;;;4.78;4.22;;;;;;;;;;5015374;28;20947;-84
2021/12/10 13:11:19;;;;;;;6.22;4.45;;;;;;;;;;5017283;28;20417;-84
2021/12/10 13:13:51;;;;;;;5.78;4.43;;;;;;;;;;5017100;28;20426;-83
2021/12/10 13:16:36;;;;;;;5.57;4.63;;;;;;;;;;5018117;28;20445;-83
2021/12/10 13:19:04;;;;;;;6.03;4.80;;;;;;;;;;5013458;28;20676;-85
2021/12/10 13:21:31;;;;;;;6.30;4.70;;;;;;;;;;5013770;28;20410;-83
2021/12/10 13:23:58;;;;;;;6.95;6.10;;;;;;;;;;5016385;28;20421;-83
2021/12/10 13:26:25;;;;;;;7.65;6.50;;;;;;;;;;5015480;28;20422;-83
2021/12/10 13:28:52;;;;;;;8.68;7.07;;;;;;;;;;5010518;28;21053;-82
2021/12/10 13:31:20;;;;;;;6.13;4.53;;;;;;;;;;5015838;28;20403;-83
2021/12/10 13:33:51;;;;;;;6.63;5.15;;;;;;;;;;5019109;28;20453;-82
2021/12/10 13:36:18;;;;;;;7.50;5.00;;;;;;;;;;5021230;28;20473;-83
2021/12/10 13:38:48;;;;;;;5.78;4.80;;;;;;;;;;5020144;28;20412;-83
2021/12/10 13:41:17;;;;;;;6.10;4.50;;;;;;;;;;5018690;28;20776;-84
2021/12/10 13:43:50;;;;;;;5.60;4.40;;;;;;;;;;5020496;28;20413;-82
2021/12/10 13:46:22;;;;;;;5.75;4.43;;;;;;;;;;5022726;28;20482;-83
2021/12/10 13:48:53;;;;;;;5.13;4.57;;;;;;;;;;5022565;28;20473;-82
2021/12/10 13:51:24;;;;;;;5.10;4.20;;;;;;;;;;5020883;28;20409;-83
2021/12/10 13:54:00;;;;;;;4.65;3.95;;;;;;;;;;5022201;28;21403;-84
2021/12/10 13:56:28;;;;;;;5.93;4.40;;;;;;;;;;5022073;28;21022;-83
2021/12/10 13:58:56;;;;;;;5.78;4.20;;;;;;;;;;5019958;28;20447;-83
2021/12/10 14:01:27;;;;;;;5.15;3.92;;;;;;;;;;5017618;28;20422;-82
2021/12/10 14:04:02;;;;;;;6.45;4.75;;;;;;;;;;5021299;28;20518;-83
2021/12/10 14:06:48;;;;;;;5.43;4.57;;;;;;;;;;5017279;28;20891;-83
2021/12/10 14:09:27;;;;;;;5.30;4.50;;;;;;;;;;5014679;28;20438;-83
2021/12/10 14:12:17;;;;;;;5.43;4.57;;;;;;;;;;5017910;28;20457;-84
2021/12/10 14:14:50;;;;;;;6.70;5.20;;;;;;;;;;5018396;28;20529;-82
2021/12/10 14:17:26;;;;;;;6.55;4.63;;;;;;;;;;5016767;28;20411;-85
2021/12/10 14:19:56;;;;;;;9.05;5.10;;;;;;;;;;5013309;28;20418;-83
2021/12/10 14:22:37;;;;;;;7.18;5.07;;;;;;;;;;5012341;28;21149;-82
2021/12/10 14:25:14;;;;;;;7.70;5.38;;;;;;;;;;5020328;28;20982;-84
2021/12/10 14:27:49;;;;;;;7.85;5.28;;;;;;;;;;5018087;28;20463;-84
2021/12/10 14:30:21;;;;;;;6.67;5.50;;;;;;;;;;5016731;28;20796;-83
2021/12/10 14:33:00;;;;;;;7.13;5.40;;;;;;;;;;5010103;28;21236;-84
2021/12/10 14:35:28;;;;;;;8.90;5.78;;;;;;;;;;5016166;28;20611;-83
2021/12/10 14:38:02;;;;;;;7.03;5.68;;;;;;;;;;5019772;28;20438;-82
2021/12/10 14:40:33;;;;;;;8.63;5.65;;;;;;;;;;5018169;28;20455;-82
2021/12/10 14:43:21;;;;;;;7.50;5.80;;;;;;;;;;5016971;28;20409;-81
2021/12/10 14:46:04;;;;;;;7.55;5.43;;;;;;;;;;5020247;28;20411;-84
2021/12/10 14:48:33;;;;;;;7.40;5.88;;;;;;;;;;5013166;28;20429;-83
2021/12/10 14:51:07;;;;;;;6.63;5.45;;;;;;;;;;5014156;28;20405;-82
2021/12/10 14:53:37;;;;;;;8.40;5.80;;;;;;;;;;5018958;28;20431;-82